sensor_id;sensor_type;location;lat;lon;timestamp;P1;durP1;ratioP1;P2;durP2;ratioP2
66633;SDS011;53546;52.184;5.596;2022-10-22T00:02:21;3.30;;;1.60;;
66633;SDS011;53546;52.184;5.596;2022-10-22T00:04:47;3.97;;;1.92;;
66633;SDS011;53546;52.184;5.596;2022-10-22T00:07:14;2.47;;;1.67;;
66633;SDS011;53546;52.184;5.596;2022-10-22T00:09:41;2.55;;;1.60;;
66633;SDS011;53546;52.184;5.596;2022-10-22T00:12:06;2.05;;;1.80;;
66633;SDS011;53546;52.184;5.596;2022-10-22T00:14:31;4.25;;;1.90;;
66633;SDS011;53546;52.184;5.596;2022-10-22T00:16:57;3.55;;;1.63;;
66633;SDS011;53546;52.184;5.596;2022-10-22T00:19:25;1.40;;;1.30;;
66633;SDS011;53546;52.184;5.596;2022-10-22T00:21:51;4.57;;;1.83;;
66633;SDS011;53546;52.184;5.596;2022-10-22T00:24:16;3.95;;;1.75;;
66633;SDS011;53546;52.184;5.596;2022-10-22T00:26:41;2.78;;;1.80;;
66633;SDS011;53546;52.184;5.596;2022-10-22T00:29:07;5.03;;;1.88;;
66633;SDS011;53546;52.184;5.596;2022-10-22T00:31:32;2.35;;;1.70;;
66633;SDS011;53546;52.184;5.596;2022-10-22T00:33:58;3.30;;;1.70;;
66633;SDS011;53546;52.184;5.596;2022-10-22T00:36:23;4.53;;;1.60;;
66633;SDS011;53546;52.184;5.596;2022-10-22T00:38:48;6.10;;;1.80;;
66633;SDS011;53546;52.184;5.596;2022-10-22T00:41:14;1.88;;;1.58;;
66633;SDS011;53546;52.184;5.596;2022-10-22T00:43:56;4.10;;;1.98;;
66633;SDS011;53546;52.184;5.596;2022-10-22T00:46:27;1.92;;;1.60;;
66633;SDS011;53546;52.184;5.596;2022-10-22T00:48:53;3.67;;;1.88;;
66633;SDS011;53546;52.184;5.596;2022-10-22T00:51:20;2.90;;;1.95;;
66633;SDS011;53546;52.184;5.596;2022-10-22T00:53:47;8.00;;;1.70;;
66633;SDS011;53546;52.184;5.596;2022-10-22T00:56:17;2.97;;;1.70;;
66633;SDS011;53546;52.184;5.596;2022-10-22T00:58:44;1.75;;;1.58;;
66633;SDS011;53546;52.184;5.596;2022-10-22T01:01:16;5.93;;;2.00;;
66633;SDS011;53546;52.184;5.596;2022-10-22T01:03:43;3.70;;;2.00;;
66633;SDS011;53546;52.184;5.596;2022-10-22T01:06:09;2.95;;;1.90;;
66633;SDS011;53546;52.184;5.596;2022-10-22T01:14:19;2.53;;;1.50;;
66633;SDS011;53546;52.184;5.596;2022-10-22T01:21:45;2.15;;;1.50;;
66633;SDS011;53546;52.184;5.596;2022-10-22T01:24:23;5.72;;;1.40;;
66633;SDS011;53546;52.184;5.596;2022-10-22T01:27:10;2.78;;;1.50;;
66633;SDS011;53546;52.184;5.596;2022-10-22T01:29:46;2.20;;;1.52;;
66633;SDS011;53546;52.184;5.596;2022-10-22T01:32:14;6.93;;;1.60;;
66633;SDS011;53546;52.184;5.596;2022-10-22T01:34:42;4.63;;;1.88;;
66633;SDS011;53546;52.184;5.596;2022-10-22T01:37:11;3.88;;;1.48;;
66633;SDS011;53546;52.184;5.596;2022-10-22T01:39:38;3.00;;;1.60;;
66633;SDS011;53546;52.184;5.596;2022-10-22T01:42:04;4.97;;;1.60;;
66633;SDS011;53546;52.184;5.596;2022-10-22T01:44:31;2.13;;;1.63;;
66633;SDS011;53546;52.184;5.596;2022-10-22T01:47:01;2.30;;;1.50;;
66633;SDS011;53546;52.184;5.596;2022-10-22T02:00:15;2.80;;;1.50;;
66633;SDS011;53546;52.184;5.596;2022-10-22T02:03:03;4.32;;;1.73;;
66633;SDS011;53546;52.184;5.596;2022-10-22T02:05:36;2.35;;;1.67;;
66633;SDS011;53546;52.184;5.596;2022-10-22T02:08:08;3.85;;;1.70;;
66633;SDS011;53546;52.184;5.596;2022-10-22T02:10:38;2.53;;;1.50;;
66633;SDS011;53546;52.184;5.596;2022-10-22T02:13:08;2.72;;;1.50;;
66633;SDS011;53546;52.184;5.596;2022-10-22T02:15:37;2.85;;;1.80;;
66633;SDS011;53546;52.184;5.596;2022-10-22T02:18:03;3.85;;;1.60;;
66633;SDS011;53546;52.184;5.596;2022-10-22T02:20:32;4.07;;;1.45;;
66633;SDS011;53546;52.184;5.596;2022-10-22T02:22:58;2.83;;;1.70;;
66633;SDS011;53546;52.184;5.596;2022-10-22T02:25:24;2.83;;;1.55;;
66633;SDS011;53546;52.184;5.596;2022-10-22T02:28:01;1.85;;;1.40;;
66633;SDS011;53546;52.184;5.596;2022-10-22T02:30:31;1.42;;;1.30;;
66633;SDS011;53546;52.184;5.596;2022-10-22T02:33:03;2.35;;;1.50;;
66633;SDS011;53546;52.184;5.596;2022-10-22T02:35:32;2.33;;;1.60;;
66633;SDS011;53546;52.184;5.596;2022-10-22T02:37:58;1.80;;;1.58;;
66633;SDS011;53546;52.184;5.596;2022-10-22T02:40:23;3.83;;;1.67;;
66633;SDS011;53546;52.184;5.596;2022-10-22T02:42:49;3.65;;;1.70;;
66633;SDS011;53546;52.184;5.596;2022-10-22T02:45:15;2.63;;;1.70;;
66633;SDS011;53546;52.184;5.596;2022-10-22T02:47:41;2.72;;;1.70;;
66633;SDS011;53546;52.184;5.596;2022-10-22T02:50:07;2.72;;;1.50;;
66633;SDS011;53546;52.184;5.596;2022-10-22T02:52:32;4.00;;;1.70;;
66633;SDS011;53546;52.184;5.596;2022-10-22T02:54:58;2.20;;;1.50;;
66633;SDS011;53546;52.184;5.596;2022-10-22T02:57:23;3.35;;;1.50;;
66633;SDS011;53546;52.184;5.596;2022-10-22T02:59:49;2.67;;;1.50;;
66633;SDS011;53546;52.184;5.596;2022-10-22T03:02:14;2.42;;;1.67;;
66633;SDS011;53546;52.184;5.596;2022-10-22T03:04:39;3.40;;;1.85;;
66633;SDS011;53546;52.184;5.596;2022-10-22T03:07:05;4.07;;;1.73;;
66633;SDS011;53546;52.184;5.596;2022-10-22T03:09:30;3.67;;;1.80;;
66633;SDS011;53546;52.184;5.596;2022-10-22T03:11:55;1.85;;;1.35;;
66633;SDS011;53546;52.184;5.596;2022-10-22T03:14:21;4.65;;;1.80;;
66633;SDS011;53546;52.184;5.596;2022-10-22T03:16:46;3.25;;;1.40;;
66633;SDS011;53546;52.184;5.596;2022-10-22T03:19:11;5.45;;;2.17;;
66633;SDS011;53546;52.184;5.596;2022-10-22T03:24:35;3.45;;;1.80;;
66633;SDS011;53546;52.184;5.596;2022-10-22T03:27:01;3.13;;;1.55;;
66633;SDS011;53546;52.184;5.596;2022-10-22T03:29:27;3.47;;;2.03;;
66633;SDS011;53546;52.184;5.596;2022-10-22T03:31:53;2.22;;;1.60;;
66633;SDS011;53546;52.184;5.596;2022-10-22T03:34:19;3.33;;;1.50;;
66633;SDS011;53546;52.184;5.596;2022-10-22T03:36:45;2.92;;;1.50;;
66633;SDS011;53546;52.184;5.596;2022-10-22T03:39:11;3.22;;;1.60;;
66633;SDS011;53546;52.184;5.596;2022-10-22T03:41:37;4.03;;;1.77;;
66633;SDS011;53546;52.184;5.596;2022-10-22T03:44:03;3.25;;;1.55;;
66633;SDS011;53546;52.184;5.596;2022-10-22T03:46:29;4.15;;;1.55;;
66633;SDS011;53546;52.184;5.596;2022-10-22T03:48:54;3.50;;;1.90;;
66633;SDS011;53546;52.184;5.596;2022-10-22T03:51:19;2.38;;;1.90;;
66633;SDS011;53546;52.184;5.596;2022-10-22T03:53:45;2.05;;;1.50;;
66633;SDS011;53546;52.184;5.596;2022-10-22T03:56:10;3.38;;;1.80;;
66633;SDS011;53546;52.184;5.596;2022-10-22T03:58:37;5.32;;;1.90;;
66633;SDS011;53546;52.184;5.596;2022-10-22T04:01:10;3.50;;;1.73;;
66633;SDS011;53546;52.184;5.596;2022-10-22T04:03:36;2.30;;;1.52;;
66633;SDS011;53546;52.184;5.596;2022-10-22T04:06:10;3.15;;;1.50;;
66633;SDS011;53546;52.184;5.596;2022-10-22T04:08:37;2.90;;;2.00;;
66633;SDS011;53546;52.184;5.596;2022-10-22T04:11:03;2.47;;;1.65;;
66633;SDS011;53546;52.184;5.596;2022-10-22T04:13:29;4.28;;;1.67;;
66633;SDS011;53546;52.184;5.596;2022-10-22T04:15:54;3.83;;;1.52;;
66633;SDS011;53546;52.184;5.596;2022-10-22T04:18:20;4.38;;;1.70;;
66633;SDS011;53546;52.184;5.596;2022-10-22T04:20:46;2.47;;;1.70;;
66633;SDS011;53546;52.184;5.596;2022-10-22T04:23:12;3.33;;;1.63;;
66633;SDS011;53546;52.184;5.596;2022-10-22T04:25:37;2.70;;;1.75;;
66633;SDS011;53546;52.184;5.596;2022-10-22T04:28:06;4.03;;;1.60;;
66633;SDS011;53546;52.184;5.596;2022-10-22T04:30:33;4.28;;;1.60;;
66633;SDS011;53546;52.184;5.596;2022-10-22T04:32:59;3.47;;;1.60;;
66633;SDS011;53546;52.184;5.596;2022-10-22T04:35:24;3.17;;;1.95;;
66633;SDS011;53546;52.184;5.596;2022-10-22T04:37:49;3.40;;;1.50;;
66633;SDS011;53546;52.184;5.596;2022-10-22T04:40:15;2.88;;;1.60;;
66633;SDS011;53546;52.184;5.596;2022-10-22T04:42:40;3.40;;;1.88;;
66633;SDS011;53546;52.184;5.596;2022-10-22T04:45:06;4.60;;;2.13;;
66633;SDS011;53546;52.184;5.596;2022-10-22T04:47:31;3.42;;;2.03;;
66633;SDS011;53546;52.184;5.596;2022-10-22T04:49:57;3.58;;;1.65;;
66633;SDS011;53546;52.184;5.596;2022-10-22T04:52:22;2.05;;;1.40;;
66633;SDS011;53546;52.184;5.596;2022-10-22T04:54:47;4.45;;;1.88;;
66633;SDS011;53546;52.184;5.596;2022-10-22T04:57:13;2.53;;;1.70;;
66633;SDS011;53546;52.184;5.596;2022-10-22T04:59:38;3.38;;;1.63;;
66633;SDS011;53546;52.184;5.596;2022-10-22T05:02:04;2.38;;;1.63;;
66633;SDS011;53546;52.184;5.596;2022-10-22T05:04:29;3.15;;;1.70;;
66633;SDS011;53546;52.184;5.596;2022-10-22T05:06:55;2.72;;;1.58;;
66633;SDS011;53546;52.184;5.596;2022-10-22T05:09:20;2.58;;;1.60;;
66633;SDS011;53546;52.184;5.596;2022-10-22T05:11:47;8.50;;;2.08;;
66633;SDS011;53546;52.184;5.596;2022-10-22T05:14:23;3.38;;;1.73;;
66633;SDS011;53546;52.184;5.596;2022-10-22T05:16:49;5.90;;;2.03;;
66633;SDS011;53546;52.184;5.596;2022-10-22T05:19:16;4.40;;;1.80;;
66633;SDS011;53546;52.184;5.596;2022-10-22T05:21:43;5.20;;;1.85;;
66633;SDS011;53546;52.184;5.596;2022-10-22T05:24:09;3.97;;;1.90;;
66633;SDS011;53546;52.184;5.596;2022-10-22T05:26:34;3.40;;;1.77;;
66633;SDS011;53546;52.184;5.596;2022-10-22T05:29:00;4.70;;;1.65;;
66633;SDS011;53546;52.184;5.596;2022-10-22T05:31:25;5.80;;;2.40;;
66633;SDS011;53546;52.184;5.596;2022-10-22T05:33:52;4.55;;;1.75;;
66633;SDS011;53546;52.184;5.596;2022-10-22T05:36:18;4.97;;;1.83;;
66633;SDS011;53546;52.184;5.596;2022-10-22T05:38:45;6.13;;;2.28;;
66633;SDS011;53546;52.184;5.596;2022-10-22T05:41:15;5.75;;;2.38;;
66633;SDS011;53546;52.184;5.596;2022-10-22T05:43:47;4.47;;;2.10;;
66633;SDS011;53546;52.184;5.596;2022-10-22T05:46:13;4.85;;;2.33;;
66633;SDS011;53546;52.184;5.596;2022-10-22T05:48:40;2.78;;;1.90;;
66633;SDS011;53546;52.184;5.596;2022-10-22T05:51:07;4.85;;;2.05;;
66633;SDS011;53546;52.184;5.596;2022-10-22T05:53:35;6.35;;;2.20;;
66633;SDS011;53546;52.184;5.596;2022-10-22T05:56:01;7.00;;;2.38;;
66633;SDS011;53546;52.184;5.596;2022-10-22T05:58:28;3.85;;;1.85;;
66633;SDS011;53546;52.184;5.596;2022-10-22T06:00:59;6.57;;;2.10;;
66633;SDS011;53546;52.184;5.596;2022-10-22T06:03:25;6.20;;;2.28;;
66633;SDS011;53546;52.184;5.596;2022-10-22T06:05:50;9.50;;;2.70;;
66633;SDS011;53546;52.184;5.596;2022-10-22T06:08:16;14.20;;;3.55;;
66633;SDS011;53546;52.184;5.596;2022-10-22T06:10:41;10.60;;;2.80;;
66633;SDS011;53546;52.184;5.596;2022-10-22T06:13:08;11.13;;;2.88;;
66633;SDS011;53546;52.184;5.596;2022-10-22T06:15:33;12.68;;;3.47;;
66633;SDS011;53546;52.184;5.596;2022-10-22T06:17:59;14.55;;;3.53;;
66633;SDS011;53546;52.184;5.596;2022-10-22T06:20:24;13.50;;;3.17;;
66633;SDS011;53546;52.184;5.596;2022-10-22T06:22:50;10.77;;;2.95;;
66633;SDS011;53546;52.184;5.596;2022-10-22T06:25:15;12.07;;;3.25;;
66633;SDS011;53546;52.184;5.596;2022-10-22T06:27:41;11.13;;;2.67;;
66633;SDS011;53546;52.184;5.596;2022-10-22T06:30:06;6.07;;;2.75;;
66633;SDS011;53546;52.184;5.596;2022-10-22T06:32:32;9.15;;;2.55;;
66633;SDS011;53546;52.184;5.596;2022-10-22T06:34:58;11.77;;;3.00;;
66633;SDS011;53546;52.184;5.596;2022-10-22T06:37:23;11.32;;;2.55;;
66633;SDS011;53546;52.184;5.596;2022-10-22T06:39:48;12.48;;;2.85;;
66633;SDS011;53546;52.184;5.596;2022-10-22T06:42:14;9.68;;;2.65;;
66633;SDS011;53546;52.184;5.596;2022-10-22T06:44:39;5.88;;;2.53;;
66633;SDS011;53546;52.184;5.596;2022-10-22T06:47:04;9.73;;;2.55;;
66633;SDS011;53546;52.184;5.596;2022-10-22T06:49:30;8.95;;;2.72;;
66633;SDS011;53546;52.184;5.596;2022-10-22T06:51:55;7.40;;;2.35;;
66633;SDS011;53546;52.184;5.596;2022-10-22T06:54:21;12.65;;;3.03;;
66633;SDS011;53546;52.184;5.596;2022-10-22T06:56:47;9.98;;;3.20;;
66633;SDS011;53546;52.184;5.596;2022-10-22T06:59:13;9.73;;;2.95;;
66633;SDS011;53546;52.184;5.596;2022-10-22T07:01:38;7.75;;;3.10;;
66633;SDS011;53546;52.184;5.596;2022-10-22T07:04:04;13.63;;;3.17;;
66633;SDS011;53546;52.184;5.596;2022-10-22T07:06:30;11.43;;;3.08;;
66633;SDS011;53546;52.184;5.596;2022-10-22T07:08:56;13.10;;;3.35;;
66633;SDS011;53546;52.184;5.596;2022-10-22T07:11:30;10.57;;;3.10;;
66633;SDS011;53546;52.184;5.596;2022-10-22T07:14:02;8.38;;;2.92;;
66633;SDS011;53546;52.184;5.596;2022-10-22T07:16:28;8.40;;;3.40;;
66633;SDS011;53546;52.184;5.596;2022-10-22T07:18:53;10.05;;;2.83;;
66633;SDS011;53546;52.184;5.596;2022-10-22T07:21:18;12.95;;;3.00;;
66633;SDS011;53546;52.184;5.596;2022-10-22T07:23:45;33.47;;;3.10;;
66633;SDS011;53546;52.184;5.596;2022-10-22T07:26:12;7.85;;;2.70;;
66633;SDS011;53546;52.184;5.596;2022-10-22T07:28:38;9.63;;;2.85;;
66633;SDS011;53546;52.184;5.596;2022-10-22T07:31:09;8.25;;;2.55;;
66633;SDS011;53546;52.184;5.596;2022-10-22T07:33:35;10.98;;;3.00;;
66633;SDS011;53546;52.184;5.596;2022-10-22T07:36:02;10.60;;;2.97;;
66633;SDS011;53546;52.184;5.596;2022-10-22T07:38:30;6.30;;;2.47;;
66633;SDS011;53546;52.184;5.596;2022-10-22T07:40:56;10.77;;;2.97;;
66633;SDS011;53546;52.184;5.596;2022-10-22T07:43:21;11.52;;;2.58;;
66633;SDS011;53546;52.184;5.596;2022-10-22T07:45:47;8.48;;;2.60;;
66633;SDS011;53546;52.184;5.596;2022-10-22T07:48:12;11.95;;;2.80;;
66633;SDS011;53546;52.184;5.596;2022-10-22T07:50:38;12.80;;;2.72;;
66633;SDS011;53546;52.184;5.596;2022-10-22T07:53:03;7.25;;;2.42;;
66633;SDS011;53546;52.184;5.596;2022-10-22T07:55:29;10.77;;;2.67;;
66633;SDS011;53546;52.184;5.596;2022-10-22T07:57:54;5.18;;;2.22;;
66633;SDS011;53546;52.184;5.596;2022-10-22T08:00:19;7.68;;;2.67;;
66633;SDS011;53546;52.184;5.596;2022-10-22T08:02:45;6.43;;;2.67;;
66633;SDS011;53546;52.184;5.596;2022-10-22T08:05:10;8.82;;;2.60;;
66633;SDS011;53546;52.184;5.596;2022-10-22T08:07:37;4.78;;;2.40;;
66633;SDS011;53546;52.184;5.596;2022-10-22T08:10:03;7.63;;;2.22;;
66633;SDS011;53546;52.184;5.596;2022-10-22T08:12:29;8.45;;;2.78;;
66633;SDS011;53546;52.184;5.596;2022-10-22T08:14:54;6.72;;;3.03;;
66633;SDS011;53546;52.184;5.596;2022-10-22T08:17:19;5.22;;;2.10;;
66633;SDS011;53546;52.184;5.596;2022-10-22T08:19:45;9.73;;;2.85;;
66633;SDS011;53546;52.184;5.596;2022-10-22T08:22:10;8.57;;;2.60;;
66633;SDS011;53546;52.184;5.596;2022-10-22T08:24:36;5.40;;;2.30;;
66633;SDS011;53546;52.184;5.596;2022-10-22T08:27:01;9.02;;;2.20;;
66633;SDS011;53546;52.184;5.596;2022-10-22T08:29:26;4.53;;;1.85;;
66633;SDS011;53546;52.184;5.596;2022-10-22T08:31:52;11.10;;;2.40;;
66633;SDS011;53546;52.184;5.596;2022-10-22T08:34:18;20.77;;;2.50;;
66633;SDS011;53546;52.184;5.596;2022-10-22T08:36:44;3.40;;;1.80;;
66633;SDS011;53546;52.184;5.596;2022-10-22T08:39:09;7.03;;;2.47;;
66633;SDS011;53546;52.184;5.596;2022-10-22T08:41:37;8.80;;;2.40;;
66633;SDS011;53546;52.184;5.596;2022-10-22T08:44:17;3.25;;;1.63;;
66633;SDS011;53546;52.184;5.596;2022-10-22T08:49:49;3.85;;;1.88;;
66633;SDS011;53546;52.184;5.596;2022-10-22T08:52:15;5.80;;;2.10;;
66633;SDS011;53546;52.184;5.596;2022-10-22T09:05:14;4.40;;;1.88;;
66633;SDS011;53546;52.184;5.596;2022-10-22T09:07:58;5.93;;;1.73;;
66633;SDS011;53546;52.184;5.596;2022-10-22T09:10:26;5.75;;;1.83;;
66633;SDS011;53546;52.184;5.596;2022-10-22T09:12:54;6.57;;;1.77;;
66633;SDS011;53546;52.184;5.596;2022-10-22T09:15:20;9.55;;;2.00;;
66633;SDS011;53546;52.184;5.596;2022-10-22T09:20:41;9.65;;;1.98;;
66633;SDS011;53546;52.184;5.596;2022-10-22T09:25:57;6.43;;;1.88;;
66633;SDS011;53546;52.184;5.596;2022-10-22T09:28:24;3.63;;;1.73;;
66633;SDS011;53546;52.184;5.596;2022-10-22T09:30:49;5.60;;;2.22;;
66633;SDS011;53546;52.184;5.596;2022-10-22T09:33:25;4.97;;;2.03;;
66633;SDS011;53546;52.184;5.596;2022-10-22T09:35:53;9.20;;;1.92;;
66633;SDS011;53546;52.184;5.596;2022-10-22T09:38:29;5.82;;;1.80;;
66633;SDS011;53546;52.184;5.596;2022-10-22T09:40:57;5.57;;;2.00;;
66633;SDS011;53546;52.184;5.596;2022-10-22T09:43:24;7.55;;;1.95;;
66633;SDS011;53546;52.184;5.596;2022-10-22T09:45:59;6.72;;;2.45;;
66633;SDS011;53546;52.184;5.596;2022-10-22T09:48:27;3.60;;;1.77;;
66633;SDS011;53546;52.184;5.596;2022-10-22T09:51:12;5.22;;;1.85;;
66633;SDS011;53546;52.184;5.596;2022-10-22T09:53:55;7.30;;;1.80;;
66633;SDS011;53546;52.184;5.596;2022-10-22T09:56:26;6.45;;;2.08;;
66633;SDS011;53546;52.184;5.596;2022-10-22T09:58:59;4.28;;;1.98;;
66633;SDS011;53546;52.184;5.596;2022-10-22T10:01:31;4.55;;;1.58;;
66633;SDS011;53546;52.184;5.596;2022-10-22T10:04:01;5.10;;;1.83;;
66633;SDS011;53546;52.184;5.596;2022-10-22T10:06:29;5.80;;;1.60;;
66633;SDS011;53546;52.184;5.596;2022-10-22T10:08:56;7.93;;;1.77;;
66633;SDS011;53546;52.184;5.596;2022-10-22T10:11:27;5.25;;;1.60;;
66633;SDS011;53546;52.184;5.596;2022-10-22T10:21:53;6.18;;;2.13;;
66633;SDS011;53546;52.184;5.596;2022-10-22T10:27:25;9.85;;;2.08;;
66633;SDS011;53546;52.184;5.596;2022-10-22T10:41:18;7.57;;;2.40;;
66633;SDS011;53546;52.184;5.596;2022-10-22T10:46:29;9.55;;;2.20;;
66633;SDS011;53546;52.184;5.596;2022-10-22T10:49:02;8.40;;;2.25;;
66633;SDS011;53546;52.184;5.596;2022-10-22T10:51:57;14.20;;;2.22;;
66633;SDS011;53546;52.184;5.596;2022-10-22T10:54:41;7.82;;;2.03;;
66633;SDS011;53546;52.184;5.596;2022-10-22T10:57:12;12.30;;;2.55;;
66633;SDS011;53546;52.184;5.596;2022-10-22T11:07:12;10.77;;;2.22;;
66633;SDS011;53546;52.184;5.596;2022-10-22T11:09:49;8.80;;;2.00;;
66633;SDS011;53546;52.184;5.596;2022-10-22T11:12:38;10.63;;;2.00;;
66633;SDS011;53546;52.184;5.596;2022-10-22T11:17:58;9.25;;;1.95;;
66633;SDS011;53546;52.184;5.596;2022-10-22T11:20:31;10.13;;;1.92;;
66633;SDS011;53546;52.184;5.596;2022-10-22T11:23:08;10.70;;;2.25;;
66633;SDS011;53546;52.184;5.596;2022-10-22T11:25:39;10.48;;;2.15;;
66633;SDS011;53546;52.184;5.596;2022-10-22T11:28:13;7.70;;;1.90;;
66633;SDS011;53546;52.184;5.596;2022-10-22T11:30:40;14.55;;;2.20;;
66633;SDS011;53546;52.184;5.596;2022-10-22T11:33:11;7.00;;;1.92;;
66633;SDS011;53546;52.184;5.596;2022-10-22T11:35:41;7.45;;;2.03;;
66633;SDS011;53546;52.184;5.596;2022-10-22T11:38:09;10.25;;;1.95;;
66633;SDS011;53546;52.184;5.596;2022-10-22T11:40:38;20.20;;;2.00;;
66633;SDS011;53546;52.184;5.596;2022-10-22T11:44:10;9.48;;;2.70;;
66633;SDS011;53546;52.184;5.596;2022-10-22T11:48:44;9.45;;;2.30;;
66633;SDS011;53546;52.184;5.596;2022-10-22T11:51:28;11.05;;;1.90;;
66633;SDS011;53546;52.184;5.596;2022-10-22T11:54:46;13.90;;;1.70;;
66633;SDS011;53546;52.184;5.596;2022-10-22T11:59:39;5.05;;;1.88;;
66633;SDS011;53546;52.184;5.596;2022-10-22T12:04:53;15.63;;;2.50;;
66633;SDS011;53546;52.184;5.596;2022-10-22T12:07:31;7.53;;;2.10;;
66633;SDS011;53546;52.184;5.596;2022-10-22T12:09:58;6.25;;;1.77;;
66633;SDS011;53546;52.184;5.596;2022-10-22T12:12:23;9.27;;;2.08;;
66633;SDS011;53546;52.184;5.596;2022-10-22T12:14:55;8.35;;;2.13;;
66633;SDS011;53546;52.184;5.596;2022-10-22T12:17:22;5.70;;;1.92;;
66633;SDS011;53546;52.184;5.596;2022-10-22T12:20:33;5.75;;;1.85;;
66633;SDS011;53546;52.184;5.596;2022-10-22T12:22:36;8.75;;;1.70;;
66633;SDS011;53546;52.184;5.596;2022-10-22T12:25:08;7.20;;;1.67;;
66633;SDS011;53546;52.184;5.596;2022-10-22T12:27:40;4.82;;;1.88;;
66633;SDS011;53546;52.184;5.596;2022-10-22T12:30:16;7.63;;;2.00;;
66633;SDS011;53546;52.184;5.596;2022-10-22T12:32:43;7.03;;;2.03;;
66633;SDS011;53546;52.184;5.596;2022-10-22T12:35:16;8.25;;;1.80;;
66633;SDS011;53546;52.184;5.596;2022-10-22T12:37:43;8.10;;;1.90;;
66633;SDS011;53546;52.184;5.596;2022-10-22T12:40:15;8.80;;;1.90;;
66633;SDS011;53546;52.184;5.596;2022-10-22T12:42:51;7.30;;;2.10;;
66633;SDS011;53546;52.184;5.596;2022-10-22T12:45:19;8.85;;;2.10;;
66633;SDS011;53546;52.184;5.596;2022-10-22T12:47:49;7.82;;;2.00;;
66633;SDS011;53546;52.184;5.596;2022-10-22T12:50:19;6.47;;;1.60;;
66633;SDS011;53546;52.184;5.596;2022-10-22T12:52:47;5.20;;;1.85;;
66633;SDS011;53546;52.184;5.596;2022-10-22T12:55:16;6.88;;;1.60;;
66633;SDS011;53546;52.184;5.596;2022-10-22T12:57:44;8.32;;;1.92;;
66633;SDS011;53546;52.184;5.596;2022-10-22T13:00:21;6.00;;;1.88;;
66633;SDS011;53546;52.184;5.596;2022-10-22T13:02:48;7.15;;;1.90;;
66633;SDS011;53546;52.184;5.596;2022-10-22T13:08:01;7.18;;;1.60;;
66633;SDS011;53546;52.184;5.596;2022-10-22T13:12:58;6.85;;;1.60;;
66633;SDS011;53546;52.184;5.596;2022-10-22T13:18:00;7.88;;;1.92;;
66633;SDS011;53546;52.184;5.596;2022-10-22T13:23:22;5.50;;;1.60;;
66633;SDS011;53546;52.184;5.596;2022-10-22T13:28:32;6.20;;;2.05;;
66633;SDS011;53546;52.184;5.596;2022-10-22T13:31:01;10.18;;;2.50;;
66633;SDS011;53546;52.184;5.596;2022-10-22T13:33:35;5.88;;;1.70;;
66633;SDS011;53546;52.184;5.596;2022-10-22T13:36:02;7.55;;;2.10;;
66633;SDS011;53546;52.184;5.596;2022-10-22T13:38:28;11.60;;;1.85;;
66633;SDS011;53546;52.184;5.596;2022-10-22T13:40:54;8.90;;;1.80;;
66633;SDS011;53546;52.184;5.596;2022-10-22T13:43:20;7.57;;;1.90;;
66633;SDS011;53546;52.184;5.596;2022-10-22T13:45:46;11.85;;;2.13;;
66633;SDS011;53546;52.184;5.596;2022-10-22T13:48:13;7.20;;;2.22;;
66633;SDS011;53546;52.184;5.596;2022-10-22T13:50:39;8.00;;;1.83;;
66633;SDS011;53546;52.184;5.596;2022-10-22T13:53:14;11.75;;;2.30;;
66633;SDS011;53546;52.184;5.596;2022-10-22T13:55:42;9.10;;;1.85;;
66633;SDS011;53546;52.184;5.596;2022-10-22T13:58:12;8.75;;;2.00;;
66633;SDS011;53546;52.184;5.596;2022-10-22T14:00:41;10.07;;;2.10;;
66633;SDS011;53546;52.184;5.596;2022-10-22T14:03:09;4.05;;;1.63;;
66633;SDS011;53546;52.184;5.596;2022-10-22T14:05:36;10.27;;;2.08;;
66633;SDS011;53546;52.184;5.596;2022-10-22T14:08:01;10.68;;;1.70;;
66633;SDS011;53546;52.184;5.596;2022-10-22T14:10:27;6.43;;;1.92;;
66633;SDS011;53546;52.184;5.596;2022-10-22T14:12:52;8.98;;;2.20;;
66633;SDS011;53546;52.184;5.596;2022-10-22T14:15:19;5.13;;;1.80;;
66633;SDS011;53546;52.184;5.596;2022-10-22T14:17:47;11.38;;;2.63;;
66633;SDS011;53546;52.184;5.596;2022-10-22T14:20:18;10.27;;;2.47;;
66633;SDS011;53546;52.184;5.596;2022-10-22T14:22:46;9.35;;;2.03;;
66633;SDS011;53546;52.184;5.596;2022-10-22T14:25:13;15.65;;;2.33;;
66633;SDS011;53546;52.184;5.596;2022-10-22T14:27:43;6.63;;;2.10;;
66633;SDS011;53546;52.184;5.596;2022-10-22T14:30:12;7.50;;;2.10;;
66633;SDS011;53546;52.184;5.596;2022-10-22T14:32:38;13.48;;;2.28;;
66633;SDS011;53546;52.184;5.596;2022-10-22T14:35:04;7.78;;;2.17;;
66633;SDS011;53546;52.184;5.596;2022-10-22T14:37:29;8.75;;;2.13;;
66633;SDS011;53546;52.184;5.596;2022-10-22T14:39:55;7.95;;;2.22;;
66633;SDS011;53546;52.184;5.596;2022-10-22T14:42:25;7.22;;;2.13;;
66633;SDS011;53546;52.184;5.596;2022-10-22T14:44:51;7.82;;;2.00;;
66633;SDS011;53546;52.184;5.596;2022-10-22T14:47:17;7.82;;;2.17;;
66633;SDS011;53546;52.184;5.596;2022-10-22T14:49:42;9.98;;;3.67;;
66633;SDS011;53546;52.184;5.596;2022-10-22T14:52:08;10.43;;;2.10;;
66633;SDS011;53546;52.184;5.596;2022-10-22T14:54:33;9.10;;;2.00;;
66633;SDS011;53546;52.184;5.596;2022-10-22T14:56:59;6.38;;;1.95;;
66633;SDS011;53546;52.184;5.596;2022-10-22T14:59:28;7.18;;;1.60;;
66633;SDS011;53546;52.184;5.596;2022-10-22T15:01:54;6.28;;;1.67;;
66633;SDS011;53546;52.184;5.596;2022-10-22T15:04:19;10.23;;;1.83;;
66633;SDS011;53546;52.184;5.596;2022-10-22T15:06:45;8.90;;;2.35;;
66633;SDS011;53546;52.184;5.596;2022-10-22T15:09:10;6.90;;;2.00;;
66633;SDS011;53546;52.184;5.596;2022-10-22T15:11:36;6.60;;;1.77;;
66633;SDS011;53546;52.184;5.596;2022-10-22T15:14:01;8.93;;;2.42;;
66633;SDS011;53546;52.184;5.596;2022-10-22T15:16:27;8.43;;;2.40;;
66633;SDS011;53546;52.184;5.596;2022-10-22T15:18:52;8.40;;;2.30;;
66633;SDS011;53546;52.184;5.596;2022-10-22T15:21:19;6.15;;;1.67;;
66633;SDS011;53546;52.184;5.596;2022-10-22T15:23:45;11.40;;;2.17;;
66633;SDS011;53546;52.184;5.596;2022-10-22T15:26:12;7.30;;;1.85;;
66633;SDS011;53546;52.184;5.596;2022-10-22T15:28:38;6.68;;;2.60;;
66633;SDS011;53546;52.184;5.596;2022-10-22T15:31:04;9.15;;;2.05;;
66633;SDS011;53546;52.184;5.596;2022-10-22T15:33:30;8.35;;;2.20;;
66633;SDS011;53546;52.184;5.596;2022-10-22T15:35:56;12.18;;;2.05;;
66633;SDS011;53546;52.184;5.596;2022-10-22T15:38:33;9.20;;;2.20;;
66633;SDS011;53546;52.184;5.596;2022-10-22T15:41:00;7.78;;;1.88;;
66633;SDS011;53546;52.184;5.596;2022-10-22T15:43:26;7.97;;;2.28;;
66633;SDS011;53546;52.184;5.596;2022-10-22T15:45:58;8.80;;;1.90;;
66633;SDS011;53546;52.184;5.596;2022-10-22T15:48:33;10.88;;;2.60;;
66633;SDS011;53546;52.184;5.596;2022-10-22T15:50:58;6.88;;;2.17;;
66633;SDS011;53546;52.184;5.596;2022-10-22T15:53:24;10.73;;;2.13;;
66633;SDS011;53546;52.184;5.596;2022-10-22T15:55:49;9.60;;;2.42;;
66633;SDS011;53546;52.184;5.596;2022-10-22T15:58:14;8.73;;;2.88;;
66633;SDS011;53546;52.184;5.596;2022-10-22T16:00:40;7.22;;;2.08;;
66633;SDS011;53546;52.184;5.596;2022-10-22T16:03:05;7.30;;;2.38;;
66633;SDS011;53546;52.184;5.596;2022-10-22T16:05:31;6.95;;;2.25;;
66633;SDS011;53546;52.184;5.596;2022-10-22T16:07:57;8.20;;;2.30;;
66633;SDS011;53546;52.184;5.596;2022-10-22T16:10:22;10.77;;;2.45;;
66633;SDS011;53546;52.184;5.596;2022-10-22T16:12:48;10.70;;;2.45;;
66633;SDS011;53546;52.184;5.596;2022-10-22T16:15:15;11.75;;;2.85;;
66633;SDS011;53546;52.184;5.596;2022-10-22T16:17:41;9.65;;;3.10;;
66633;SDS011;53546;52.184;5.596;2022-10-22T16:20:06;9.32;;;2.83;;
66633;SDS011;53546;52.184;5.596;2022-10-22T16:22:32;9.73;;;2.60;;
66633;SDS011;53546;52.184;5.596;2022-10-22T16:24:58;10.43;;;2.45;;
66633;SDS011;53546;52.184;5.596;2022-10-22T16:27:23;12.50;;;3.10;;
66633;SDS011;53546;52.184;5.596;2022-10-22T16:29:48;13.10;;;3.00;;
66633;SDS011;53546;52.184;5.596;2022-10-22T16:32:14;7.15;;;2.63;;